Time;durP1;ratioP1;P1;durP2;ratioP2;P2;SDS_P1;SDS_P2;PMS_P1;PMS_P2;Temp;Humidity;BMP_temperature;BMP_pressure;BME280_temperature;BME280_humidity;BME280_pressure;Samples;Min_cycle;Max_cycle;Signal;HPM_P1;HPM_P2
2024/01/02 00:01:20;;;;;;;;;;;;;;;6.08;62.69;98929.13;4436249;32;33829;-88
2024/01/02 00:03:48;;;;;;;;;;;;;;;6.06;62.81;98921.38;4436714;32;33118;-90
2024/01/02 00:06:15;;;;;;;;;;;;;;;6.15;62.94;98930.16;4434698;32;33240;-87
2024/01/02 00:08:43;;;;;;;;;;;;;;;6.19;62.55;98921.69;4434738;32;33990;-87
2024/01/02 00:11:10;;;;;;;;;;;;;;;6.20;62.29;98919.13;4435849;32;34238;-90
2024/01/02 00:13:38;;;;;;;;;;;;;;;6.15;62.27;98928.44;4435947;32;34797;-89
2024/01/02 00:16:05;;;;;;;;;;;;;;;6.12;62.29;98924.91;4430403;32;34364;-90
2024/01/02 00:18:33;;;;;;;;;;;;;;;6.14;62.13;98923.25;4420256;32;33956;-87
2024/01/02 00:21:00;;;;;;;;;;;;;;;6.21;61.77;98926.06;4435216;32;34060;-87
2024/01/02 00:23:27;;;;;;;;;;;;;;;6.07;61.90;98929.94;4436114;32;35003;-86
2024/01/02 00:25:56;;;;;;;;;;;;;;;5.85;62.30;98928.47;4436425;32;34227;-85
2024/01/02 00:28:23;;;;;;;;;;;;;;;5.85;62.64;98929.31;4435407;32;33549;-89
2024/01/02 00:30:50;;;;;;;;;;;;;;;5.99;62.23;98926.31;4436771;32;33515;-89
2024/01/02 00:33:18;;;;;;;;;;;;;;;6.08;61.54;98921.41;4436951;32;34590;-87
2024/01/02 00:35:45;;;;;;;;;;;;;;;5.91;61.81;98914.88;4436874;32;32843;-87
2024/01/02 00:38:12;;;;;;;;;;;;;;;5.98;61.60;98920.25;4436711;32;34595;-86
2024/01/02 00:40:40;;;;;;;;;;;;;;;5.90;61.44;98921.72;4436749;32;34789;-88
2024/01/02 00:43:07;;;;;;;;;;;;;;;5.95;61.31;98922.78;4436327;32;34261;-88
2024/01/02 00:45:35;;;;;;;;;;;;;;;5.72;61.85;98922.12;4436336;32;34024;-88
2024/01/02 00:48:03;;;;;;;;;;;;;;;5.72;62.03;98922.12;4420786;32;34150;-90
2024/01/02 00:50:31;;;;;;;;;;;;;;;5.72;62.20;98919.53;4421120;32;34392;-90
2024/01/02 00:53:03;;;;;;;;;;;;;;;5.58;62.14;98916.56;4431991;32;34159;-90
2024/01/02 00:55:31;;;;;;;;;;;;;;;5.54;62.27;98922.47;4436444;32;33154;-87
2024/01/02 00:57:58;;;;;;;;;;;;;;;5.54;62.04;98919.03;4434932;32;34797;-88
2024/01/02 01:00:26;;;;;;;;;;;;;;;5.53;62.05;98917.25;4436233;32;35068;-89
2024/01/02 01:02:53;;;;;;;;;;;;;;;5.40;62.20;98925.44;4436368;32;34308;-87
2024/01/02 01:05:21;;;;;;;;;;;;;;;5.50;61.96;98930.91;4436461;32;33299;-89
2024/01/02 01:07:49;;;;;;;;;;;;;;;5.29;62.17;98925.13;4435761;32;33280;-87
2024/01/02 01:10:16;;;;;;;;;;;;;;;5.20;62.54;98933.44;4436072;32;34746;-88
2024/01/02 01:12:45;;;;;;;;;;;;;;;4.59;64.22;98926.41;4436622;32;38148;-86
2024/01/02 01:15:12;;;;;;;;;;;;;;;4.84;63.53;98928.03;4422100;32;32639;-86
2024/01/02 01:17:39;;;;;;;;;;;;;;;5.00;63.31;98922.56;4422346;32;33341;-86
2024/01/02 01:20:08;;;;;;;;;;;;;;;5.04;63.24;98923.53;4422095;32;33429;-90
2024/01/02 01:22:36;;;;;;;;;;;;;;;5.13;62.88;98928.94;4435124;32;34946;-86
2024/01/02 01:25:03;;;;;;;;;;;;;;;5.13;62.86;98922.09;4435707;32;34086;-89
2024/01/02 01:27:31;;;;;;;;;;;;;;;5.26;62.36;98922.47;4420927;32;33686;-86
2024/01/02 01:29:58;;;;;;;;;;;;;;;5.16;62.45;98918.75;4434032;32;35194;-87
2024/01/02 01:32:25;;;;;;;;;;;;;;;5.04;62.80;98913.25;4419961;32;33159;-87
2024/01/02 01:34:53;;;;;;;;;;;;;;;5.02;62.82;98920.03;4433690;32;31650;-87
2024/01/02 01:37:21;;;;;;;;;;;;;;;4.98;62.79;98910.50;4420590;32;33412;-89
2024/01/02 01:39:49;;;;;;;;;;;;;;;5.01;62.74;98913.16;4433524;32;35626;-87
2024/01/02 01:42:16;;;;;;;;;;;;;;;5.10;62.49;98926.28;4435474;32;34074;-87
2024/01/02 01:44:44;;;;;;;;;;;;;;;4.92;63.07;98928.28;4435451;32;33541;-88
2024/01/02 01:47:11;;;;;;;;;;;;;;;5.09;62.88;98930.53;4435201;32;33776;-88
2024/01/02 01:49:41;;;;;;;;;;;;;;;5.13;62.50;98928.94;4435781;32;34410;-88
2024/01/02 01:52:08;;;;;;;;;;;;;;;5.11;62.79;98923.78;4434175;32;34194;-88
2024/01/02 01:54:36;;;;;;;;;;;;;;;5.10;62.61;98929.72;4434500;32;33612;-88
2024/01/02 01:57:05;;;;;;;;;;;;;;;5.06;62.87;98915.03;4435688;32;33962;-88
2024/01/02 01:59:33;;;;;;;;;;;;;;;5.14;63.08;98922.97;4435705;32;34424;-87
2024/01/02 02:02:00;;;;;;;;;;;;;;;4.98;63.44;98925.91;4435821;32;34201;-88
2024/01/02 02:04:28;;;;;;;;;;;;;;;4.96;63.64;98920.69;4443347;32;32984;-90
2024/01/02 02:06:55;;;;;;;;;;;;;;;5.14;63.12;98922.97;4434535;32;34792;-90
2024/01/02 02:09:22;;;;;;;;;;;;;;;5.03;63.37;98917.50;4437537;32;34087;-89
2024/01/02 02:11:53;;;;;;;;;;;;;;;5.17;63.25;98917.94;4437500;32;34124;-90
2024/01/02 02:14:20;;;;;;;;;;;;;;;5.11;63.08;98917.72;4449141;32;34061;-87
2024/01/02 02:16:50;;;;;;;;;;;;;;;4.96;63.99;98922.41;4437234;32;33916;-89
2024/01/02 02:19:18;;;;;;;;;;;;;;;4.80;65.09;98932.19;4435965;32;34207;-88
2024/01/02 02:21:46;;;;;;;;;;;;;;;4.94;64.91;98929.22;4423391;32;34890;-87
2024/01/02 02:24:13;;;;;;;;;;;;;;;4.57;65.49;98923.75;4423558;32;33435;-88
2024/01/02 02:26:40;;;;;;;;;;;;;;;4.52;65.31;98924.44;4437509;32;34259;-87
2024/01/02 02:29:11;;;;;;;;;;;;;;;4.78;64.50;98915.00;4437566;32;34802;-87
2024/01/02 02:31:39;;;;;;;;;;;;;;;4.81;64.03;98912.53;4436728;32;33859;-88
2024/01/02 02:34:09;;;;;;;;;;;;;;;4.99;63.43;98902.81;4435873;32;33886;-86
2024/01/02 02:36:38;;;;;;;;;;;;;;;4.81;63.63;98908.28;4437388;32;33940;-87
2024/01/02 02:39:09;;;;;;;;;;;;;;;4.98;63.13;98913.94;4437123;32;34550;-89
2024/01/02 02:41:37;;;;;;;;;;;;;;;4.86;63.41;98916.13;4422974;32;33245;-89
2024/01/02 02:44:05;;;;;;;;;;;;;;;4.94;63.21;98913.78;4436373;32;34114;-89
2024/01/02 02:46:32;;;;;;;;;;;;;;;5.09;62.42;98914.25;4437147;32;33767;-89
2024/01/02 02:49:02;;;;;;;;;;;;;;;4.85;63.15;98909.25;4423053;32;33353;-88
2024/01/02 02:51:29;;;;;;;;;;;;;;;4.81;63.37;98913.41;4437120;32;33868;-89
2024/01/02 02:53:56;;;;;;;;;;;;;;;4.57;64.08;98908.34;4437141;32;33332;-88
2024/01/02 02:56:24;;;;;;;;;;;;;;;4.65;63.95;98911.16;4437016;32;33864;-89
2024/01/02 02:58:51;;;;;;;;;;;;;;;4.52;64.29;98909.03;4437347;32;33573;-87
2024/01/02 03:01:27;;;;;;;;;;;;;;;4.67;63.93;98916.38;4436908;32;33553;-87
2024/01/02 03:03:58;;;;;;;;;;;;;;;4.49;64.81;98921.78;4437071;32;34064;-87
2024/01/02 03:06:25;;;;;;;;;;;;;;;4.78;63.80;98908.19;4435691;32;34007;-86
2024/01/02 03:08:52;;;;;;;;;;;;;;;4.67;64.06;98909.53;4436987;32;33623;-88
2024/01/02 03:11:20;;;;;;;;;;;;;;;4.77;63.70;98913.25;4437158;32;34354;-85
2024/01/02 03:13:51;;;;;;;;;;;;;;;4.67;63.91;98917.25;4437214;32;33337;-88
2024/01/02 03:16:19;;;;;;;;;;;;;;;4.82;63.67;98902.31;4437057;32;33899;-89
2024/01/02 03:18:49;;;;;;;;;;;;;;;4.72;63.69;98892.56;4436478;32;34416;-87
2024/01/02 03:21:16;;;;;;;;;;;;;;;4.77;63.68;98896.16;4420404;32;33531;-88
2024/01/02 03:23:45;;;;;;;;;;;;;;;4.99;63.33;98897.69;4410070;32;33249;-88
2024/01/02 03:26:13;;;;;;;;;;;;;;;4.84;63.64;98897.22;4437128;32;34313;-88
2024/01/02 03:28:40;;;;;;;;;;;;;;;4.87;63.77;98907.59;4437372;32;34352;-88
2024/01/02 03:31:07;;;;;;;;;;;;;;;4.79;63.88;98903.91;4436913;32;34303;-87
2024/01/02 03:33:35;;;;;;;;;;;;;;;4.96;63.40;98904.41;4436805;32;33619;-89
2024/01/02 03:36:02;;;;;;;;;;;;;;;4.98;63.34;98906.22;4436932;32;33737;-90
2024/01/02 03:38:32;;;;;;;;;;;;;;;4.79;63.38;98903.91;4436706;32;34238;-89
2024/01/02 03:41:02;;;;;;;;;;;;;;;4.81;63.21;98894.53;4437049;32;34740;-87
2024/01/02 03:43:29;;;;;;;;;;;;;;;5.03;62.75;98890.94;4436709;32;33448;-87
2024/01/02 03:45:56;;;;;;;;;;;;;;;4.99;62.62;98889.09;4436562;32;34878;-88
2024/01/02 03:48:24;;;;;;;;;;;;;;;4.86;62.92;98881.03;4436894;32;33759;-89
2024/01/02 03:50:51;;;;;;;;;;;;;;;4.88;62.99;98876.78;4436832;32;34856;-88
2024/01/02 03:53:21;;;;;;;;;;;;;;;4.84;63.23;98879.22;4436622;32;33449;-87
2024/01/02 03:55:51;;;;;;;;;;;;;;;4.96;63.15;98871.88;4436851;32;34166;-88
2024/01/02 03:58:18;;;;;;;;;;;;;;;4.99;62.96;98871.13;4436872;32;33786;-89
2024/01/02 04:00:48;;;;;;;;;;;;;;;5.07;62.78;98872.22;4436618;32;34638;-88
2024/01/02 04:03:18;;;;;;;;;;;;;;;5.13;62.29;98872.41;4436820;32;33414;-88
2024/01/02 04:05:45;;;;;;;;;;;;;;;5.05;62.66;98872.19;4437115;32;34600;-87
2024/01/02 04:08:13;;;;;;;;;;;;;;;5.01;62.86;98875.50;4436748;32;34284;-87
2024/01/02 04:10:41;;;;;;;;;;;;;;;5.00;62.69;98884.03;4436895;32;34512;-87
2024/01/02 04:13:12;;;;;;;;;;;;;;;5.05;62.86;98892.75;4435697;32;33101;-87
2024/01/02 04:15:39;;;;;;;;;;;;;;;5.11;62.73;98897.19;4435454;32;34838;-88
2024/01/02 04:18:07;;;;;;;;;;;;;;;5.08;62.93;98897.09;4436623;32;35176;-88
2024/01/02 04:20:35;;;;;;;;;;;;;;;5.10;63.09;98898.00;4435473;32;33051;-84
2024/01/02 04:23:04;;;;;;;;;;;;;;;5.09;62.92;98902.28;4422221;32;34221;-87
2024/01/02 04:25:32;;;;;;;;;;;;;;;5.18;62.72;98901.69;4422348;32;33912;-86
2024/01/02 04:27:59;;;;;;;;;;;;;;;5.21;62.64;98906.03;4422742;32;35652;-87
2024/01/02 04:30:27;;;;;;;;;;;;;;;5.21;62.48;98900.91;4436309;32;33688;-87
2024/01/02 04:32:57;;;;;;;;;;;;;;;5.19;62.66;98910.25;4435005;32;33309;-87
2024/01/02 04:35:25;;;;;;;;;;;;;;;5.07;63.03;98892.78;4437006;32;34216;-88
2024/01/02 04:37:53;;;;;;;;;;;;;;;5.13;63.14;98900.69;4436484;32;33808;-88
2024/01/02 04:40:23;;;;;;;;;;;;;;;5.18;63.03;98904.25;4436474;32;34845;-89
2024/01/02 04:42:50;;;;;;;;;;;;;;;5.20;62.63;98899.16;4436503;32;34050;-89
2024/01/02 04:45:17;;;;;;;;;;;;;;;5.17;62.83;98899.94;4436161;32;33683;-90
2024/01/02 04:47:45;;;;;;;;;;;;;;;5.35;62.24;98894.47;4436517;32;33534;-90
2024/01/02 04:50:15;;;;;;;;;;;;;;;5.17;62.60;98892.22;4436428;32;33762;-86
2024/01/02 04:52:42;;;;;;;;;;;;;;;5.11;62.78;98884.31;4436278;32;33014;-88
2024/01/02 04:55:10;;;;;;;;;;;;;;;4.91;63.30;98885.44;4422403;32;33684;-88
2024/01/02 04:57:37;;;;;;;;;;;;;;;4.68;63.80;98885.59;4435285;32;34384;-88
2024/01/02 05:00:05;;;;;;;;;;;;;;;4.71;63.95;98884.81;4436142;32;33727;-88
2024/01/02 05:02:33;;;;;;;;;;;;;;;4.82;63.73;98884.34;4422183;32;32634;-89
2024/01/02 05:05:01;;;;;;;;;;;;;;;4.61;64.22;98881.09;4435209;32;34904;-88
2024/01/02 05:07:28;;;;;;;;;;;;;;;4.81;63.71;98880.03;4419561;32;33507;-87
2024/01/02 05:09:57;;;;;;;;;;;;;;;4.83;63.64;98875.78;4422378;32;34165;-88
2024/01/02 05:12:24;;;;;;;;;;;;;;;4.85;63.07;98887.00;4422743;32;34145;-87
2024/01/02 05:14:51;;;;;;;;;;;;;;;4.81;63.38;98877.47;4409729;32;36947;-87
2024/01/02 05:17:22;;;;;;;;;;;;;;;4.83;63.21;98877.50;4436135;32;35200;-87
2024/01/02 05:19:49;;;;;;;;;;;;;;;4.77;63.25;98874.72;4434617;32;34381;-87
2024/01/02 05:22:17;;;;;;;;;;;;;;;4.83;63.28;98862.94;4435454;32;34193;-87
2024/01/02 05:24:47;;;;;;;;;;;;;;;5.02;62.64;98864.38;4430910;32;34115;-86
2024/01/02 05:27:19;;;;;;;;;;;;;;;4.98;62.37;98866.81;4436296;32;35017;-88
2024/01/02 05:29:47;;;;;;;;;;;;;;;4.76;62.96;98879.00;4435799;32;34090;-87
2024/01/02 05:32:14;;;;;;;;;;;;;;;4.73;63.22;98876.31;4436042;32;33508;-86
2024/01/02 05:34:41;;;;;;;;;;;;;;;4.08;65.34;98880.19;4435108;32;34058;-86
2024/01/02 05:37:10;;;;;;;;;;;;;;;4.15;65.66;98883.03;4435201;32;34795;-88
2024/01/02 05:39:40;;;;;;;;;;;;;;;4.23;65.38;98880.72;4435977;32;33994;-87
2024/01/02 05:42:07;;;;;;;;;;;;;;;4.12;65.58;98880.34;4435766;32;32995;-88
2024/01/02 05:44:37;;;;;;;;;;;;;;;4.19;65.41;98886.56;4435163;32;35398;-88
2024/01/02 05:47:04;;;;;;;;;;;;;;;4.24;65.00;98884.16;4435772;32;33711;-89
2024/01/02 05:49:33;;;;;;;;;;;;;;;3.95;65.77;98883.19;4435821;32;34564;-89
2024/01/02 05:52:00;;;;;;;;;;;;;;;4.02;65.41;98880.87;4434686;32;32937;-87
2024/01/02 05:54:29;;;;;;;;;;;;;;;3.56;67.04;98883.50;4434670;32;34403;-88
2024/01/02 05:56:57;;;;;;;;;;;;;;;3.26;68.89;98884.16;4421267;32;34043;-87
2024/01/02 05:59:24;;;;;;;;;;;;;;;3.54;68.37;98882.59;4407662;32;33478;-87
2024/01/02 06:01:51;;;;;;;;;;;;;;;3.85;67.34;98884.53;4433760;32;32403;-86
2024/01/02 06:04:19;;;;;;;;;;;;;;;3.97;67.06;98881.53;4409047;32;33135;-89
2024/01/02 06:06:46;;;;;;;;;;;;;;;4.00;66.89;98876.50;4409143;32;33279;-87
2024/01/02 06:09:14;;;;;;;;;;;;;;;3.78;67.33;98874.91;4435633;32;34016;-85
2024/01/02 06:11:44;;;;;;;;;;;;;;;3.50;68.47;98875.63;4424262;32;32263;-84
2024/01/02 06:14:11;;;;;;;;;;;;;;;3.48;68.99;98877.25;4421102;32;33647;-86
2024/01/02 06:16:39;;;;;;;;;;;;;;;3.78;68.16;98885.16;4408935;32;33567;-89
2024/01/02 06:19:09;;;;;;;;;;;;;;;3.89;67.72;98877.00;4421675;32;34770;-87
2024/01/02 06:21:37;;;;;;;;;;;;;;;3.92;67.47;98873.69;4421914;32;32547;-86
2024/01/02 06:24:04;;;;;;;;;;;;;;;3.75;68.02;98879.91;4408879;32;33262;-87
2024/01/02 06:26:31;;;;;;;;;;;;;;;4.13;66.80;98878.69;4424190;32;33854;-87
2024/01/02 06:29:02;;;;;;;;;;;;;;;4.25;66.14;98873.94;4419067;32;32759;-88
2024/01/02 06:31:30;;;;;;;;;;;;;;;4.41;65.66;98872.75;4420976;32;31816;-87
2024/01/02 06:33:58;;;;;;;;;;;;;;;4.49;65.27;98860.16;4421228;32;33097;-88
2024/01/02 06:36:25;;;;;;;;;;;;;;;4.41;65.64;98870.19;4421278;32;33692;-87
2024/01/02 06:38:52;;;;;;;;;;;;;;;4.47;65.68;98872.97;4433410;32;34324;-87
2024/01/02 06:41:20;;;;;;;;;;;;;;;4.51;65.49;98863.63;4435053;32;33571;-88
2024/01/02 06:43:50;;;;;;;;;;;;;;;4.39;65.87;98876.94;4434973;32;35018;-87
2024/01/02 06:46:19;;;;;;;;;;;;;;;4.56;65.32;98869.81;4434047;32;34339;-87
2024/01/02 06:48:47;;;;;;;;;;;;;;;4.69;65.01;98874.50;4436623;32;35014;-87
2024/01/02 06:51:14;;;;;;;;;;;;;;;4.54;65.41;98867.16;4437050;32;33588;-87
2024/01/02 06:53:41;;;;;;;;;;;;;;;4.76;64.89;98858.44;4437128;32;34090;-86
2024/01/02 06:56:11;;;;;;;;;;;;;;;4.75;65.00;98859.28;4437145;32;35472;-87
2024/01/02 06:58:44;;;;;;;;;;;;;;;4.78;64.69;98867.09;4437195;32;34192;-87
2024/01/02 07:01:13;;;;;;;;;;;;;;;4.90;64.38;98865.72;4437203;32;33045;-88
2024/01/02 07:03:40;;;;;;;;;;;;;;;4.91;64.14;98865.75;4427939;32;34102;-89
2024/01/02 07:06:07;;;;;;;;;;;;;;;4.99;63.98;98876.25;4436020;32;34064;-87
2024/01/02 07:08:35;;;;;;;;;;;;;;;4.99;63.74;98874.56;4437130;32;34237;-89
2024/01/02 07:11:03;;;;;;;;;;;;;;;4.97;63.83;98873.66;4431426;32;34048;-88
2024/01/02 07:13:30;;;;;;;;;;;;;;;4.97;63.71;98868.53;4435338;32;34056;-91
2024/01/02 07:15:58;;;;;;;;;;;;;;;4.98;63.83;98871.97;4435423;32;34393;-90
2024/01/02 07:18:25;;;;;;;;;;;;;;;4.98;64.01;98869.38;4429513;32;34714;-86
2024/01/02 07:20:52;;;;;;;;;;;;;;;4.95;64.13;98875.28;4435969;32;32265;-90
2024/01/02 07:23:20;;;;;;;;;;;;;;;5.04;63.80;98877.28;4436365;32;34150;-89
2024/01/02 07:25:47;;;;;;;;;;;;;;;4.93;64.28;98879.53;4437112;32;35120;-89
2024/01/02 07:28:14;;;;;;;;;;;;;;;4.97;64.27;98881.37;4435893;32;34044;-87
2024/01/02 07:30:42;;;;;;;;;;;;;;;4.99;64.65;98886.53;4436731;32;33393;-87
2024/01/02 07:33:09;;;;;;;;;;;;;;;5.13;64.38;98883.56;4430252;32;34752;-88
2024/01/02 07:35:36;;;;;;;;;;;;;;;5.05;64.59;98882.47;4436169;32;34531;-87
2024/01/02 07:38:04;;;;;;;;;;;;;;;4.75;65.28;98882.41;4432452;32;35008;-85
2024/01/02 07:40:32;;;;;;;;;;;;;;;4.77;65.53;98879.87;4429125;32;33661;-89
2024/01/02 07:43:00;;;;;;;;;;;;;;;4.86;65.18;98875.03;4434963;32;33810;-89
2024/01/02 07:45:28;;;;;;;;;;;;;;;5.05;64.59;98876.47;4435954;32;35094;-87
2024/01/02 07:47:55;;;;;;;;;;;;;;;4.73;65.37;98878.88;4417508;32;33666;-88
2024/01/02 07:50:23;;;;;;;;;;;;;;;4.95;64.81;98874.44;4435999;32;33803;-86
2024/01/02 07:52:52;;;;;;;;;;;;;;;4.99;64.56;98871.13;4435733;32;33999;-90
2024/01/02 07:55:19;;;;;;;;;;;;;;;4.95;64.42;98867.59;4434041;32;34319;-87
2024/01/02 07:57:46;;;;;;;;;;;;;;;4.88;64.50;98869.09;4430128;32;33847;-90
2024/01/02 08:00:14;;;;;;;;;;;;;;;4.84;64.64;98867.25;4421228;32;33883;-90
2024/01/02 08:02:41;;;;;;;;;;;;;;;4.67;64.86;98863.31;4436166;32;33694;-87
2024/01/02 08:05:09;;;;;;;;;;;;;;;4.88;64.47;98863.94;4436155;32;34638;-89
2024/01/02 08:07:36;;;;;;;;;;;;;;;5.14;63.71;98856.16;4432415;32;33783;-86
2024/01/02 08:10:05;;;;;;;;;;;;;;;5.17;63.33;98860.53;4434278;32;31734;-88
2024/01/02 08:12:32;;;;;;;;;;;;;;;4.95;63.62;98856.44;4436720;32;34912;-88
2024/01/02 08:14:59;;;;;;;;;;;;;;;5.10;63.29;98865.47;4435981;32;34555;-89
2024/01/02 08:17:27;;;;;;;;;;;;;;;4.90;64.08;98853.75;4448401;32;33696;-88
2024/01/02 08:19:54;;;;;;;;;;;;;;;5.03;63.78;98854.97;4446289;32;33378;-87
2024/01/02 08:22:21;;;;;;;;;;;;;;;4.96;64.20;98850.47;4434701;32;33347;-88
2024/01/02 08:24:49;;;;;;;;;;;;;;;5.06;64.07;98858.50;4436454;32;34569;-89
2024/01/02 08:27:16;;;;;;;;;;;;;;;5.18;63.92;98846.84;4436079;32;34089;-86
2024/01/02 08:29:44;;;;;;;;;;;;;;;5.05;64.39;98855.91;4436272;32;33569;-88
2024/01/02 08:32:13;;;;;;;;;;;;;;;4.84;65.41;98856.97;4436311;32;34795;-87
2024/01/02 08:34:40;;;;;;;;;;;;;;;4.78;65.24;98851.69;4436264;32;33655;-89
2024/01/02 08:37:08;;;;;;;;;;;;;;;4.46;66.45;98852.34;4430616;32;34301;-86
2024/01/02 08:39:35;;;;;;;;;;;;;;;4.78;65.86;98859.38;4431499;32;33279;-87
2024/01/02 08:42:02;;;;;;;;;;;;;;;4.49;66.55;98860.16;4435379;32;34848;-90
2024/01/02 08:44:30;;;;;;;;;;;;;;;4.33;66.96;98859.66;4436169;32;34032;-87
2024/01/02 08:46:57;;;;;;;;;;;;;;;4.54;66.20;98856.03;4431886;32;34428;-86
2024/01/02 08:49:25;;;;;;;;;;;;;;;3.87;68.17;98855.59;4435164;32;33821;-88
2024/01/02 08:51:52;;;;;;;;;;;;;;;3.83;68.65;98864.00;4435722;32;33972;-89
2024/01/02 08:54:19;;;;;;;;;;;;;;;3.85;68.79;98856.34;4434924;32;34205;-87
2024/01/02 08:56:46;;;;;;;;;;;;;;;3.94;68.75;98845.50;4435970;32;34177;-85
2024/01/02 08:59:14;;;;;;;;;;;;;;;3.83;69.43;98848.59;4444578;32;33500;-86
2024/01/02 09:01:41;;;;;;;;;;;;;;;3.87;69.41;98854.72;4435370;32;34062;-85
2024/01/02 09:04:08;;;;;;;;;;;;;;;3.84;69.76;98850.34;4435622;32;33011;-87
2024/01/02 09:06:36;;;;;;;;;;;;;;;3.82;70.39;98854.53;4435326;32;35751;-85
2024/01/02 09:09:05;;;;;;;;;;;;;;;3.98;69.97;98842.22;4435850;32;33291;-88
2024/01/02 09:11:32;;;;;;;;;;;;;;;3.94;70.60;98840.38;4435551;32;34862;-85
2024/01/02 09:14:00;;;;;;;;;;;;;;;3.27;73.49;98849.16;4434883;32;34337;-86
2024/01/02 09:16:31;;;;;;;;;;;;;;;3.46;72.75;98851.56;4436326;32;34159;-87
2024/01/02 09:18:58;;;;;;;;;;;;;;;3.86;71.93;98837.56;4434938;32;34339;-88
2024/01/02 09:21:25;;;;;;;;;;;;;;;3.86;72.19;98832.44;4434387;32;34339;-85
2024/01/02 09:23:56;;;;;;;;;;;;;;;3.74;72.84;98834.59;4436578;32;34000;-86
2024/01/02 09:26:24;;;;;;;;;;;;;;;3.58;73.91;98830.62;4436027;32;33785;-85
2024/01/02 09:28:54;;;;;;;;;;;;;;;3.68;73.85;98830.13;4434089;32;33022;-87
2024/01/02 09:31:25;;;;;;;;;;;;;;;3.39;75.55;98817.16;4434320;32;33659;-86
2024/01/02 09:33:52;;;;;;;;;;;;;;;3.30;75.94;98824.53;4434041;32;33941;-89
2024/01/02 09:36:20;;;;;;;;;;;;;;;3.60;75.15;98816.19;4435524;32;34092;-88
2024/01/02 09:38:47;;;;;;;;;;;;;;;3.57;75.31;98814.38;4434729;32;32442;-86
2024/01/02 09:41:14;;;;;;;;;;;;;;;3.77;75.21;98807.38;4419510;32;32599;-88
2024/01/02 09:44:01;;;;;;;;;;;;;;;4.09;74.07;98800.75;4433052;32;34143;-88
2024/01/02 09:46:44;;;;;;;;;;;;;;;4.22;73.72;98791.75;4434427;32;33419;-88
2024/01/02 09:49:27;;;;;;;;;;;;;;;4.49;73.06;98798.56;4437051;32;32443;-88
2024/01/02 09:52:01;;;;;;;;;;;;;;;4.31;74.08;98798.84;4420776;32;35023;-87
2024/01/02 09:54:28;;;;;;;;;;;;;;;4.32;74.29;98795.47;4435115;32;34046;-87
2024/01/02 09:57:15;;;;;;;;;;;;;;;4.59;73.29;98801.47;4423898;32;33585;-89
2024/01/02 09:59:46;;;;;;;;;;;;;;;4.44;74.06;98797.56;4434847;32;33434;-87
2024/01/02 10:02:24;;;;;;;;;;;;;;;4.69;73.61;98800.03;4420486;32;33425;-88
2024/01/02 10:05:14;;;;;;;;;;;;;;;4.67;73.98;98796.56;4421421;32;34098;-90
2024/01/02 10:07:47;;;;;;;;;;;;;;;4.71;74.55;98792.38;4415902;32;33345;-87
2024/01/02 10:10:26;;;;;;;;;;;;;;;4.91;73.84;98783.56;4421169;32;33935;-88
2024/01/02 10:13:12;;;;;;;;;;;;;;;4.92;73.70;98776.72;4431963;32;33501;-86
2024/01/02 10:15:45;;;;;;;;;;;;;;;5.02;73.57;98783.88;4434120;32;33425;-91
2024/01/02 10:18:12;;;;;;;;;;;;;;;5.12;73.21;98776.47;4425469;32;34231;-90
2024/01/02 10:21:02;;;;;;;;;;;;;;;5.23;73.24;98773.34;4427968;32;34131;-89
2024/01/02 10:23:34;;;;;;;;;;;;;;;5.24;73.20;98775.94;4427368;32;32989;-87
2024/01/02 10:26:03;;;;;;;;;;;;;;;5.22;73.74;98772.44;4432561;32;34168;-89
2024/01/02 10:28:30;;;;;;;;;;;;;;;5.28;74.10;98772.63;4410562;32;34575;-87
2024/01/02 10:31:16;;;;;;;;;;;;;;;5.24;74.22;98770.78;4409327;32;32885;-88
2024/01/02 10:33:48;;;;;;;;;;;;;;;5.42;74.14;98770.44;4435394;32;34016;-87
2024/01/02 10:36:20;;;;;;;;;;;;;;;5.48;73.89;98769.72;4434760;32;35052;-88
2024/01/02 10:39:07;;;;;;;;;;;;;;;5.75;73.19;98764.41;4434576;32;33834;-88
2024/01/02 10:41:35;;;;;;;;;;;;;;;5.61;73.41;98759.78;4435347;32;32972;-85
2024/01/02 10:44:14;;;;;;;;;;;;;;;5.77;73.08;98747.31;4439178;32;33212;-91
2024/01/02 10:46:47;;;;;;;;;;;;;;;5.81;72.67;98734.56;4431759;32;34312;-86
2024/01/02 10:49:40;;;;;;;;;;;;;;;5.77;72.84;98730.19;4440661;32;32814;-89
2024/01/02 10:52:20;;;;;;;;;;;;;;;5.59;73.56;98724.56;4411296;32;32942;-86
2024/01/02 10:55:10;;;;;;;;;;;;;;;5.88;72.95;98719.28;4435994;32;34278;-89
2024/01/02 10:58:00;;;;;;;;;;;;;;;6.17;72.04;98728.56;4414705;32;34103;-86
2024/01/02 11:00:32;;;;;;;;;;;;;;;6.27;71.86;98714.22;4430475;32;33979;-87
2024/01/02 11:03:07;;;;;;;;;;;;;;;6.11;72.02;98707.00;4422335;32;33150;-87
2024/01/02 11:05:42;;;;;;;;;;;;;;;6.21;71.56;98704.69;4433784;32;34605;-88
2024/01/02 11:08:20;;;;;;;;;;;;;;;6.01;72.36;98701.62;4438056;32;35213;-88
2024/01/02 11:10:54;;;;;;;;;;;;;;;6.05;71.52;98690.56;4436048;32;34213;-89
2024/01/02 11:13:21;;;;;;;;;;;;;;;5.50;74.12;98683.22;4434392;32;32632;-87
2024/01/02 11:15:51;;;;;;;;;;;;;;;5.62;73.93;98691.22;4435357;32;33682;-88
2024/01/02 11:18:18;;;;;;;;;;;;;;;5.32;74.82;98691.31;4440139;32;33996;-86
2024/01/02 11:20:49;;;;;;;;;;;;;;;5.60;74.35;98682.59;4429580;32;33853;-88
2024/01/02 11:23:17;;;;;;;;;;;;;;;5.56;74.72;98676.50;4423171;32;32677;-87
2024/01/02 11:25:48;;;;;;;;;;;;;;;5.82;74.54;98682.28;4435829;32;34045;-88
2024/01/02 11:28:30;;;;;;;;;;;;;;;5.92;73.77;98670.56;4436183;32;33983;-88
2024/01/02 11:30:57;;;;;;;;;;;;;;;5.78;74.58;98677.91;4437189;32;34683;-87
2024/01/02 11:33:34;;;;;;;;;;;;;;;5.57;75.17;98672.25;4435930;32;33981;-87
2024/01/02 11:36:07;;;;;;;;;;;;;;;5.79;74.80;98671.03;4434396;32;34113;-87
2024/01/02 11:38:52;;;;;;;;;;;;;;;5.78;75.01;98677.91;4423117;32;33245;-87
2024/01/02 11:41:28;;;;;;;;;;;;;;;5.82;75.08;98669.41;4422804;32;33390;-86
2024/01/02 11:43:59;;;;;;;;;;;;;;;5.75;75.91;98661.53;4435586;32;33290;-85
2024/01/02 11:46:28;;;;;;;;;;;;;;;6.13;74.81;98652.13;4433086;32;34157;-86
2024/01/02 11:49:00;;;;;;;;;;;;;;;6.34;74.41;98651.75;4425646;32;35234;-87
2024/01/02 11:51:29;;;;;;;;;;;;;;;6.21;75.15;98644.59;4445820;32;34398;-85
2024/01/02 11:53:56;;;;;;;;;;;;;;;6.22;74.89;98638.63;4436165;32;34016;-90
2024/01/02 11:56:23;;;;;;;;;;;;;;;6.43;74.94;98633.03;4422154;32;33173;-86
2024/01/02 11:58:51;;;;;;;;;;;;;;;6.49;74.29;98618.59;4421985;32;33901;-89
2024/01/02 12:01:28;;;;;;;;;;;;;;;6.70;73.96;98614.69;4434967;32;33402;-87
2024/01/02 12:04:15;;;;;;;;;;;;;;;6.71;73.61;98601.00;4415775;32;32699;-87
2024/01/02 12:06:51;;;;;;;;;;;;;;;6.69;74.03;98600.06;4422398;32;32984;-87
2024/01/02 12:09:19;;;;;;;;;;;;;;;7.06;72.90;98584.44;4435087;32;33943;-88
2024/01/02 12:11:47;;;;;;;;;;;;;;;6.85;73.37;98580.63;4422348;32;33423;-88
2024/01/02 12:14:18;;;;;;;;;;;;;;;6.97;73.31;98571.41;4445383;32;33393;-88
2024/01/02 12:16:46;;;;;;;;;;;;;;;7.18;72.59;98581.22;4421906;32;34637;-87
2024/01/02 12:19:15;;;;;;;;;;;;;;;7.19;72.74;98582.06;4434585;32;34433;-87
2024/01/02 12:21:46;;;;;;;;;;;;;;;7.37;71.90;98577.22;4422297;32;34345;-88
2024/01/02 12:24:14;;;;;;;;;;;;;;;7.42;72.10;98577.28;4436713;32;34101;-90
2024/01/02 12:26:42;;;;;;;;;;;;;;;7.39;72.32;98574.69;4419396;32;32734;-89
2024/01/02 12:29:11;;;;;;;;;;;;;;;7.44;72.18;98567.87;4426462;32;34425;-88
2024/01/02 12:31:42;;;;;;;;;;;;;;;7.56;71.77;98570.63;4434963;32;33697;-86
2024/01/02 12:34:14;;;;;;;;;;;;;;;7.48;71.97;98564.50;4450980;32;35800;-90
2024/01/02 12:36:45;;;;;;;;;;;;;;;7.73;71.40;98560.59;4436668;32;34017;-89
2024/01/02 12:39:15;;;;;;;;;;;;;;;7.60;71.78;98546.63;4435795;32;34402;-88
2024/01/02 12:41:44;;;;;;;;;;;;;;;7.47;72.35;98548.16;4435228;32;34410;-86
2024/01/02 12:44:12;;;;;;;;;;;;;;;7.61;71.83;98550.06;4436015;32;33082;-90
2024/01/02 12:46:40;;;;;;;;;;;;;;;7.67;71.60;98545.87;4415370;32;33700;-90
2024/01/02 12:49:10;;;;;;;;;;;;;;;7.64;71.94;98550.09;4412940;32;33733;-86
2024/01/02 12:51:41;;;;;;;;;;;;;;;7.76;71.46;98558.03;4404752;32;33833;-89
2024/01/02 12:54:08;;;;;;;;;;;;;;;7.84;71.32;98542.63;4404493;32;33873;-89
2024/01/02 12:56:37;;;;;;;;;;;;;;;8.09;70.43;98531.78;4401996;32;34137;-88
2024/01/02 12:59:05;;;;;;;;;;;;;;;8.02;70.83;98532.56;4404215;32;33797;-89
2024/01/02 13:01:33;;;;;;;;;;;;;;;7.87;71.36;98537.53;4416270;32;34818;-87
2024/01/02 13:04:00;;;;;;;;;;;;;;;8.02;70.83;98528.25;4412937;32;33255;-87
2024/01/02 13:06:28;;;;;;;;;;;;;;;7.98;71.37;98513.59;4408463;32;34908;-87
2024/01/02 13:08:55;;;;;;;;;;;;;;;7.75;71.72;98510.72;4397547;32;35553;-87